X  Sluiten METAR luchtvaart weer gegevens      EHRD Rotterdam The Hague Airport
Temperatuur
17°C Temperatuur
17°C Dauwpunt
100% Vochtigheid



Wind
5 KM/U
3 MPH
1 M/S
3 KTS



240°
WZW
Huidig weer

Nevel Nevel
Luchtdruk 1007.92 (hPa) - 29.76 (inHg)
Zicht 1.9 (mijl) - 3 (km)
Vliegveld
Vliegveld code EHRD

Locatie : Rotterdam The Hague Airport
Afstand: 16 (km)

Metar:
EHRD 242255Z AUTO 24003KT 2900 BR NSC 17/17 Q1008 TEMPO 5000

Tijd: 25-07-2021 00:55 CEST